Time;durP1;ratioP1;P1;durP2;ratioP2;P2;SDS_P1;SDS_P2;PMS_P1;PMS_P2;Temp;Humidity;BMP_temperature;BMP_pressure;BME280_temperature;BME280_humidity;BME280_pressure;Samples;Min_cycle;Max_cycle;Signal;HPM_P1;HPM_P2
2022/09/15 00:00:51;;;;;;;;;;;;;;;15.86;77.02;100777.59;4984779;28;19941;-81
2022/09/15 00:03:17;;;;;;;;;;;;;;;15.85;77.23;100775.88;5013634;28;19929;-81
2022/09/15 00:05:42;;;;;;;;;;;;;;;15.84;77.17;100775.97;4983955;28;19917;-80
2022/09/15 00:08:08;;;;;;;;;;;;;;;15.81;77.13;100784.97;5001367;28;19961;-80
2022/09/15 00:10:33;;;;;;;;;;;;;;;15.80;77.07;100777.97;5001678;28;20075;-80
2022/09/15 00:12:58;;;;;;;;;;;;;;;15.79;77.22;100776.28;5008377;28;19925;-80
2022/09/15 00:15:23;;;;;;;;;;;;;;;15.78;77.16;100781.66;5001250;28;20213;-80
2022/09/15 00:17:50;;;;;;;;;;;;;;;15.74;77.21;100773.94;5009404;28;19979;-80
2022/09/15 00:20:16;;;;;;;;;;;;;;;15.73;77.01;100780.13;5000741;28;19928;-80
2022/09/15 00:22:42;;;;;;;;;;;;;;;15.71;77.26;100770.59;5001236;28;19913;-80
2022/09/15 00:25:08;;;;;;;;;;;;;;;15.71;77.17;100778.53;4982895;28;19922;-80
2022/09/15 00:27:33;;;;;;;;;;;;;;;15.69;77.35;100777.78;4983806;28;19910;-80
2022/09/15 00:29:59;;;;;;;;;;;;;;;15.68;77.35;100769.00;4967057;28;19952;-80
2022/09/15 00:32:24;;;;;;;;;;;;;;;15.66;77.36;100767.41;5001188;28;20158;-80
2022/09/15 00:34:50;;;;;;;;;;;;;;;15.64;77.08;100769.28;5000892;28;19914;-80
2022/09/15 00:37:16;;;;;;;;;;;;;;;15.64;77.47;100764.84;4983585;28;20322;-81
2022/09/15 00:39:41;;;;;;;;;;;;;;;15.62;77.28;100764.09;5000756;28;19952;-80
2022/09/15 00:42:06;;;;;;;;;;;;;;;15.61;77.52;100767.72;4983589;28;20100;-80
2022/09/15 00:44:34;;;;;;;;;;;;;;;15.60;77.27;100767.78;4982829;28;20235;-80
2022/09/15 00:47:01;;;;;;;;;;;;;;;15.59;77.40;100771.38;5000044;28;20016;-80
2022/09/15 00:49:30;;;;;;;;;;;;;;;15.58;77.29;100777.59;5002628;28;19921;-80
2022/09/15 00:51:58;;;;;;;;;;;;;;;15.55;77.28;100774.22;5015192;28;19917;-80
2022/09/15 00:54:31;;;;;;;;;;;;;;;15.55;77.29;100776.00;4998784;28;19924;-80
2022/09/15 00:56:59;;;;;;;;;;;;;;;15.53;77.23;100778.75;4982994;28;19988;-81
2022/09/15 00:59:26;;;;;;;;;;;;;;;15.51;77.44;100780.59;4982968;28;19951;-80
2022/09/15 01:05:16;;;;;;;;;;;;;;;15.50;77.46;100778.94;5009193;28;19913;-80
2022/09/15 01:07:47;;;;;;;;;;;;;;;15.50;77.56;100778.09;5013537;28;20201;-80
2022/09/15 01:10:18;;;;;;;;;;;;;;;15.48;77.73;100778.19;5000596;28;20228;-80
2022/09/15 01:12:43;;;;;;;;;;;;;;;15.48;77.48;100778.19;5001073;28;19914;-80
2022/09/15 01:15:08;;;;;;;;;;;;;;;15.46;77.76;100774.78;5000246;28;20225;-80
2022/09/15 01:17:52;;;;;;;;;;;;;;;15.47;77.79;100779.13;5005588;28;19921;-80
2022/09/15 01:20:41;;;;;;;;;;;;;;;15.46;77.75;100779.22;4983536;28;19917;-80
2022/09/15 01:23:16;;;;;;;;;;;;;;;15.46;77.91;100782.72;4982293;28;19917;-80
2022/09/15 01:25:50;;;;;;;;;;;;;;;15.45;77.64;100778.38;5000023;28;19993;-80
2022/09/15 01:28:41;;;;;;;;;;;;;;;15.45;77.94;100788.91;4982881;28;19917;-80
2022/09/15 01:31:07;;;;;;;;;;;;;;;15.45;77.79;100782.81;4980643;28;19960;-80
2022/09/15 01:33:43;;;;;;;;;;;;;;;15.43;77.56;100782.91;5008173;28;20013;-80
2022/09/15 01:36:09;;;;;;;;;;;;;;;15.42;77.78;100775.06;5000952;28;19921;-80
2022/09/15 01:38:37;;;;;;;;;;;;;;;15.41;77.74;100771.59;5008604;28;19945;-80
2022/09/15 01:41:13;;;;;;;;;;;;;;;15.39;77.61;100770.84;4999626;28;19944;-80
2022/09/15 01:43:42;;;;;;;;;;;;;;;15.39;77.78;100775.25;5004122;28;19952;-80
2022/09/15 01:46:09;;;;;;;;;;;;;;;15.38;77.80;100784.97;4980499;28;19906;-80
2022/09/15 01:48:35;;;;;;;;;;;;;;;15.36;77.58;100776.31;5015135;28;20118;-80
2022/09/15 01:51:01;;;;;;;;;;;;;;;15.36;77.67;100785.06;5019646;28;19964;-80
2022/09/15 01:53:27;;;;;;;;;;;;;;;15.36;77.81;100792.13;5003806;28;20086;-80
2022/09/15 01:55:59;;;;;;;;;;;;;;;15.36;77.92;100792.13;4982607;28;19924;-80
2022/09/15 01:58:24;;;;;;;;;;;;;;;15.36;78.18;100781.56;5006489;28;19916;-80
2022/09/15 02:00:56;;;;;;;;;;;;;;;15.35;78.15;100775.47;5019392;28;19917;-80
2022/09/15 02:03:25;;;;;;;;;;;;;;;15.35;78.27;100783.38;5019321;28;19909;-80
2022/09/15 02:05:54;;;;;;;;;;;;;;;15.36;78.04;100786.84;5001564;28;19914;-80
2022/09/15 02:08:32;;;;;;;;;;;;;;;15.37;78.28;100785.91;5014477;28;19928;-81
2022/09/15 02:11:10;;;;;;;;;;;;;;;15.36;78.34;100778.94;4999916;28;20095;-80
2022/09/15 02:13:44;;;;;;;;;;;;;;;15.37;78.05;100777.97;4983247;28;19913;-80
2022/09/15 02:16:18;;;;;;;;;;;;;;;15.37;78.33;100772.69;4999278;28;19912;-80
2022/09/15 02:18:56;;;;;;;;;;;;;;;15.38;78.29;100778.84;5006230;28;20219;-80
2022/09/15 02:21:28;;;;;;;;;;;;;;;15.37;78.40;100777.97;5001873;28;20180;-80
2022/09/15 02:23:56;;;;;;;;;;;;;;;15.39;78.70;100780.53;5000040;28;20212;-81
2022/09/15 02:26:24;;;;;;;;;;;;;;;15.40;78.61;100779.59;5023124;28;20087;-80
2022/09/15 02:28:50;;;;;;;;;;;;;;;15.40;78.73;100782.22;5016742;28;20164;-80
2022/09/15 02:31:17;;;;;;;;;;;;;;;15.39;78.64;100785.81;5003799;28;19944;-80
2022/09/15 02:33:45;;;;;;;;;;;;;;;15.39;78.64;100786.69;5004867;28;20272;-81
2022/09/15 02:36:15;;;;;;;;;;;;;;;15.39;78.64;100789.31;4998595;28;20264;-80
2022/09/15 02:38:44;;;;;;;;;;;;;;;15.39;78.75;100789.31;4999446;28;19908;-80
2022/09/15 02:41:12;;;;;;;;;;;;;;;15.39;78.85;100786.69;5023101;28;19921;-81
2022/09/15 02:43:43;;;;;;;;;;;;;;;15.40;78.84;100795.44;5020681;28;19921;-80
2022/09/15 02:46:09;;;;;;;;;;;;;;;15.40;78.70;100788.34;5002381;28;19906;-80
2022/09/15 02:48:34;;;;;;;;;;;;;;;15.40;78.59;100791.00;5004209;28;20036;-80
2022/09/15 02:51:00;;;;;;;;;;;;;;;15.39;78.78;100794.59;5005689;28;19925;-80
2022/09/15 02:53:25;;;;;;;;;;;;;;;15.39;78.64;100794.59;5005610;28;20114;-80
2022/09/15 02:55:51;;;;;;;;;;;;;;;15.39;78.79;100786.69;5005173;28;20242;-80
2022/09/15 02:58:16;;;;;;;;;;;;;;;15.39;78.94;100786.69;5004581;28;19922;-82
2022/09/15 03:00:41;;;;;;;;;;;;;;;15.40;78.89;100787.50;4984558;28;19914;-81
2022/09/15 03:03:07;;;;;;;;;;;;;;;15.39;79.00;100789.31;5000074;28;19917;-81
2022/09/15 03:05:32;;;;;;;;;;;;;;;15.39;78.71;100788.44;4999463;28;20056;-81
2022/09/15 03:07:58;;;;;;;;;;;;;;;15.38;78.87;100787.59;4980799;28;19925;-81
2022/09/15 03:10:24;;;;;;;;;;;;;;;15.39;78.83;100796.34;4996100;28;19993;-81
2022/09/15 03:12:51;;;;;;;;;;;;;;;15.39;78.67;100797.22;4994919;28;20156;-81
2022/09/15 03:15:18;;;;;;;;;;;;;;;15.38;78.58;100802.59;5004931;28;20254;-81
2022/09/15 03:17:45;;;;;;;;;;;;;;;15.39;79.10;100804.28;5019447;28;20201;-81
2022/09/15 03:20:11;;;;;;;;;;;;;;;15.38;79.05;100800.78;4991080;28;19940;-81
2022/09/15 03:22:37;;;;;;;;;;;;;;;15.39;79.04;100804.28;5014164;28;19962;-81
2022/09/15 03:25:04;;;;;;;;;;;;;;;15.37;78.83;100801.72;4992650;28;20164;-81
2022/09/15 03:27:30;;;;;;;;;;;;;;;15.37;78.95;100809.63;4998867;28;19917;-81
2022/09/15 03:29:55;;;;;;;;;;;;;;;15.36;78.75;100806.16;4990823;28;20146;-81
2022/09/15 03:32:21;;;;;;;;;;;;;;;15.35;78.99;100804.47;4980381;28;19910;-81
2022/09/15 03:34:46;;;;;;;;;;;;;;;15.36;78.92;100805.31;4965553;28;19922;-81
2022/09/15 03:37:11;;;;;;;;;;;;;;;15.35;79.04;100807.13;4997122;28;19921;-81
2022/09/15 03:39:37;;;;;;;;;;;;;;;15.35;79.13;100807.13;4984542;28;20218;-81
2022/09/15 03:42:02;;;;;;;;;;;;;;;15.34;78.88;100805.41;5018673;28;19921;-81
2022/09/15 03:44:27;;;;;;;;;;;;;;;15.34;79.00;100807.22;5018028;28;19952;-81
2022/09/15 03:46:53;;;;;;;;;;;;;;;15.33;78.74;100811.66;5018830;28;19920;-81
2022/09/15 03:49:18;;;;;;;;;;;;;;;15.32;78.82;100809.94;5018747;28;19924;-81
2022/09/15 03:51:43;;;;;;;;;;;;;;;15.31;78.82;100813.50;4999519;28;19952;-81
2022/09/15 03:54:09;;;;;;;;;;;;;;;15.31;78.69;100816.16;4994164;28;19960;-81
2022/09/15 03:56:34;;;;;;;;;;;;;;;15.31;78.74;100807.38;4995981;28;19913;-81
2022/09/15 03:59:00;;;;;;;;;;;;;;;15.30;78.76;100806.56;5014752;28;19932;-81
2022/09/15 04:01:26;;;;;;;;;;;;;;;15.30;78.67;100808.34;4996642;28;19909;-81
2022/09/15 04:03:51;;;;;;;;;;;;;;;15.29;78.63;100815.41;5018145;28;19918;-81
2022/09/15 04:06:18;;;;;;;;;;;;;;;15.29;78.89;100809.28;5004928;28;20300;-81
2022/09/15 04:08:43;;;;;;;;;;;;;;;15.29;79.04;100812.75;5005076;28;19916;-81
2022/09/15 04:11:09;;;;;;;;;;;;;;;15.29;78.83;100811.91;5016611;28;19909;-81
2022/09/15 04:13:35;;;;;;;;;;;;;;;15.29;78.73;100815.41;5000649;28;19924;-81
2022/09/15 04:16:01;;;;;;;;;;;;;;;15.30;79.12;100811.00;5018029;28;19917;-81
2022/09/15 04:18:27;;;;;;;;;;;;;;;15.29;79.02;100811.91;5000741;28;20115;-81
2022/09/15 04:20:52;;;;;;;;;;;;;;;15.28;79.06;100808.44;5009867;28;19964;-81
2022/09/15 04:23:19;;;;;;;;;;;;;;;15.29;78.98;100818.03;4981450;28;19925;-81
2022/09/15 04:25:52;;;;;;;;;;;;;;;15.28;79.09;100811.06;5001811;28;19949;-81
2022/09/15 04:28:19;;;;;;;;;;;;;;;15.28;79.04;100813.72;4981777;28;19968;-81
2022/09/15 04:30:44;;;;;;;;;;;;;;;15.29;79.12;100814.56;5004168;28;19913;-81
2022/09/15 04:33:10;;;;;;;;;;;;;;;15.30;79.24;100816.25;5025287;28;19917;-81
2022/09/15 04:35:35;;;;;;;;;;;;;;;15.29;79.23;100812.75;5017357;28;20128;-81
2022/09/15 04:38:00;;;;;;;;;;;;;;;15.29;79.09;100807.47;5017879;28;19921;-81
2022/09/15 04:40:26;;;;;;;;;;;;;;;15.30;79.12;100809.19;5003850;28;20198;-81
2022/09/15 04:42:51;;;;;;;;;;;;;;;15.30;79.36;100803.06;5000466;28;19948;-81
2022/09/15 04:45:16;;;;;;;;;;;;;;;15.29;79.21;100820.66;5010898;28;19932;-81
2022/09/15 04:47:42;;;;;;;;;;;;;;;15.29;79.32;100812.75;5017553;28;19953;-81
2022/09/15 04:50:07;;;;;;;;;;;;;;;15.29;79.07;100815.41;5004800;28;19926;-81
2022/09/15 04:52:32;;;;;;;;;;;;;;;15.30;79.39;100821.53;4996396;28;19928;-81
2022/09/15 04:54:58;;;;;;;;;;;;;;;15.30;79.22;100806.56;5019066;28;19914;-81
2022/09/15 04:57:23;;;;;;;;;;;;;;;15.31;79.50;100810.03;4995730;28;20222;-81
2022/09/15 04:59:48;;;;;;;;;;;;;;;15.30;79.49;100814.47;5017419;28;20113;-81
2022/09/15 05:02:13;;;;;;;;;;;;;;;15.31;79.56;100812.66;5004268;28;19967;-81
2022/09/15 05:04:38;;;;;;;;;;;;;;;15.30;79.80;100808.34;4980608;28;19922;-81
2022/09/15 05:07:04;;;;;;;;;;;;;;;15.31;79.88;100810.03;4997474;28;19929;-81
2022/09/15 05:09:29;;;;;;;;;;;;;;;15.31;79.53;100810.03;4980706;28;19977;-81
2022/09/15 05:11:55;;;;;;;;;;;;;;;15.31;79.61;100805.59;4990788;28;19930;-81
2022/09/15 05:14:20;;;;;;;;;;;;;;;15.31;79.81;100808.22;5017363;28;19917;-81
2022/09/15 05:16:45;;;;;;;;;;;;;;;15.31;79.58;100812.66;4989493;28;20092;-81
2022/09/15 05:19:11;;;;;;;;;;;;;;;15.30;79.63;100805.72;4965031;28;19925;-81
2022/09/15 05:21:37;;;;;;;;;;;;;;;15.29;79.68;100807.47;5012781;28;20299;-81
2022/09/15 05:24:02;;;;;;;;;;;;;;;15.29;79.85;100807.47;4998805;28;19914;-81
2022/09/15 05:26:28;;;;;;;;;;;;;;;15.28;79.46;100811.06;4979910;28;20002;-81
2022/09/15 05:28:54;;;;;;;;;;;;;;;15.29;79.42;100811.91;4997091;28;19943;-81
2022/09/15 05:31:20;;;;;;;;;;;;;;;15.28;79.48;100810.22;4998517;28;20109;-81
2022/09/15 05:33:47;;;;;;;;;;;;;;;15.27;79.37;100805.88;4998773;28;19917;-81
2022/09/15 05:36:13;;;;;;;;;;;;;;;15.27;79.22;100811.16;4982651;28;20024;-81
2022/09/15 05:38:39;;;;;;;;;;;;;;;15.26;79.36;100814.72;4997095;28;19913;-81
2022/09/15 05:41:09;;;;;;;;;;;;;;;15.25;79.30;100813.88;4998002;28;19913;-81
2022/09/15 05:43:35;;;;;;;;;;;;;;;15.26;78.96;100822.66;4997886;28;19921;-81
2022/09/15 05:46:01;;;;;;;;;;;;;;;15.27;78.87;100813.81;5012099;28;19917;-81
2022/09/15 05:48:26;;;;;;;;;;;;;;;15.26;79.31;100820.88;5014066;28;19960;-81
2022/09/15 05:50:52;;;;;;;;;;;;;;;15.26;79.08;100820.00;5016472;28;19952;-81
2022/09/15 05:53:18;;;;;;;;;;;;;;;15.26;79.10;100817.38;5001317;28;19953;-81
2022/09/15 05:55:43;;;;;;;;;;;;;;;15.24;79.03;100828.00;4977006;28;19954;-81
2022/09/15 05:58:09;;;;;;;;;;;;;;;15.25;79.29;100827.09;5004328;28;20132;-81
2022/09/15 06:00:35;;;;;;;;;;;;;;;15.25;79.32;100832.34;5019003;28;19948;-81
2022/09/15 06:03:01;;;;;;;;;;;;;;;15.25;79.05;100823.59;5002653;28;19925;-81
2022/09/15 06:05:26;;;;;;;;;;;;;;;15.25;79.32;100827.09;5002077;28;19956;-81
2022/09/15 06:07:52;;;;;;;;;;;;;;;15.26;79.25;100822.66;5019143;28;20275;-81
2022/09/15 06:10:18;;;;;;;;;;;;;;;15.25;79.05;100827.09;5002262;28;20063;-81
2022/09/15 06:12:43;;;;;;;;;;;;;;;15.26;79.29;100828.78;5012285;28;20394;-81
2022/09/15 06:15:08;;;;;;;;;;;;;;;15.26;79.12;100828.78;5000236;28;20144;-81
2022/09/15 06:17:34;;;;;;;;;;;;;;;15.27;79.45;100829.63;4971813;28;20139;-81
2022/09/15 06:19:59;;;;;;;;;;;;;;;15.27;79.70;100832.28;5020236;28;19917;-81
2022/09/15 06:22:24;;;;;;;;;;;;;;;15.28;79.74;100841.88;5016623;28;19916;-81
2022/09/15 06:24:51;;;;;;;;;;;;;;;15.28;79.92;100841.88;4981903;28;19925;-81
2022/09/15 06:27:17;;;;;;;;;;;;;;;15.28;79.95;100847.16;4984266;28;19940;-81
2022/09/15 06:29:42;;;;;;;;;;;;;;;15.29;80.00;100848.84;5019859;28;19952;-81
2022/09/15 06:32:07;;;;;;;;;;;;;;;15.27;79.90;100848.94;5015424;28;19924;-81
2022/09/15 06:34:32;;;;;;;;;;;;;;;15.29;80.25;100854.13;4978141;28;20417;-81
2022/09/15 06:36:58;;;;;;;;;;;;;;;15.29;80.03;100854.97;4980833;28;19917;-81
2022/09/15 06:39:23;;;;;;;;;;;;;;;15.29;80.06;100854.13;4993581;28;19980;-81
2022/09/15 06:41:49;;;;;;;;;;;;;;;15.29;80.14;100852.34;4990900;28;19917;-81
2022/09/15 06:44:14;;;;;;;;;;;;;;;15.31;80.40;100857.53;4986440;28;19922;-81
2022/09/15 06:46:39;;;;;;;;;;;;;;;15.31;80.25;100860.16;4985633;28;20192;-81
2022/09/15 06:49:05;;;;;;;;;;;;;;;15.32;80.74;100860.06;4978354;28;19993;-81
2022/09/15 06:51:34;;;;;;;;;;;;;;;15.33;80.80;100860.91;4999852;28;20242;-81
2022/09/15 06:53:59;;;;;;;;;;;;;;;15.33;80.73;100861.78;4996497;28;19940;-81
2022/09/15 06:56:25;;;;;;;;;;;;;;;15.35;80.83;100864.31;4980249;28;20583;-81
2022/09/15 06:58:50;;;;;;;;;;;;;;;15.35;80.80;100875.72;4981053;28;20117;-81
2022/09/15 07:01:20;;;;;;;;;;;;;;;15.35;80.90;100867.81;4982328;28;19924;-81
2022/09/15 07:03:45;;;;;;;;;;;;;;;15.36;81.14;100871.28;4978709;28;20231;-81
2022/09/15 07:06:11;;;;;;;;;;;;;;;15.38;81.09;100876.47;4996543;28;19928;-81
2022/09/15 07:08:36;;;;;;;;;;;;;;;15.39;81.20;100879.03;4981922;28;19913;-81
2022/09/15 07:11:02;;;;;;;;;;;;;;;15.39;81.33;100875.53;4995781;28;19953;-81
2022/09/15 07:13:27;;;;;;;;;;;;;;;15.41;81.60;100885.06;4991988;28;19925;-81
2022/09/15 07:15:53;;;;;;;;;;;;;;;15.41;81.34;100890.34;4992917;28;19917;-81
2022/09/15 07:18:19;;;;;;;;;;;;;;;15.44;81.40;100889.28;5008819;28;19930;-81
2022/09/15 07:20:44;;;;;;;;;;;;;;;15.44;81.36;100887.50;4979042;28;19957;-81
2022/09/15 07:23:09;;;;;;;;;;;;;;;15.45;81.25;100891.00;4993506;28;19918;-81
2022/09/15 07:25:35;;;;;;;;;;;;;;;15.46;81.47;100897.97;4996694;28;19917;-81
2022/09/15 07:28:01;;;;;;;;;;;;;;;15.47;81.52;100904.94;4997036;28;20349;-81
2022/09/15 07:30:26;;;;;;;;;;;;;;;15.48;81.76;100902.22;4982474;28;19922;-81
2022/09/15 07:32:51;;;;;;;;;;;;;;;15.46;80.71;100914.66;5010176;28;19929;-81
2022/09/15 07:35:17;;;;;;;;;;;;;;;15.46;80.81;100919.94;4997276;28;19968;-83
2022/09/15 07:37:43;;;;;;;;;;;;;;;15.46;80.65;100924.34;4963180;28;19918;-81
2022/09/15 07:40:09;;;;;;;;;;;;;;;15.45;80.63;100918.22;4995846;28;19993;-81
2022/09/15 07:42:35;;;;;;;;;;;;;;;15.45;81.01;100917.41;4994871;28;19918;-81
2022/09/15 07:45:00;;;;;;;;;;;;;;;15.45;81.24;100918.22;4994844;28;20176;-82
2022/09/15 07:47:25;;;;;;;;;;;;;;;15.45;81.44;100925.31;4991343;28;19929;-81
2022/09/15 07:49:51;;;;;;;;;;;;;;;15.45;81.42;100928.78;4985199;28;20094;-81
2022/09/15 07:52:17;;;;;;;;;;;;;;;15.47;81.52;100929.53;4990706;28;19921;-81
2022/09/15 07:54:42;;;;;;;;;;;;;;;15.48;81.59;100933.91;4971191;28;20152;-82
2022/09/15 07:57:07;;;;;;;;;;;;;;;15.50;81.90;100936.44;4997794;28;19980;-81
2022/09/15 07:59:32;;;;;;;;;;;;;;;15.51;81.96;100936.34;4997024;28;19921;-81
2022/09/15 08:01:57;;;;;;;;;;;;;;;15.53;82.23;100938.88;4996874;28;20447;-81
2022/09/15 08:04:23;;;;;;;;;;;;;;;15.53;81.99;100939.75;5006235;28;19930;-81
2022/09/15 08:06:48;;;;;;;;;;;;;;;15.56;82.12;100946.63;4980569;28;19928;-81
2022/09/15 08:09:16;;;;;;;;;;;;;;;15.56;82.34;100946.63;4996549;28;19914;-81
2022/09/15 08:11:41;;;;;;;;;;;;;;;15.57;82.26;100947.47;4974092;28;20024;-81
2022/09/15 08:14:07;;;;;;;;;;;;;;;15.59;82.02;100950.88;5000452;28;19925;-81
2022/09/15 08:16:32;;;;;;;;;;;;;;;15.62;81.87;100961.25;4997156;28;19917;-81
2022/09/15 08:18:57;;;;;;;;;;;;;;;15.62;81.25;100958.59;4977396;28;19925;-81
2022/09/15 08:21:23;;;;;;;;;;;;;;;15.62;80.71;100959.44;4977900;28;19921;-81
2022/09/15 08:23:49;;;;;;;;;;;;;;;15.64;80.36;100969.91;4996566;28;19922;-81
2022/09/15 08:26:14;;;;;;;;;;;;;;;15.64;79.80;100975.19;5005782;28;19989;-81
2022/09/15 08:28:40;;;;;;;;;;;;;;;15.65;79.27;100992.75;5007912;28;20203;-81
2022/09/15 08:31:08;;;;;;;;;;;;;;;15.62;78.22;100993.75;5003232;28;19918;-81
2022/09/15 08:33:33;;;;;;;;;;;;;;;15.62;78.03;100998.19;5010678;28;19910;-81
2022/09/15 08:36:00;;;;;;;;;;;;;;;15.60;77.13;101003.56;4997067;28;19917;-81
2022/09/15 08:38:25;;;;;;;;;;;;;;;15.58;77.15;101002.81;4999513;28;19918;-81
2022/09/15 08:40:56;;;;;;;;;;;;;;;15.58;77.07;101017.81;4998266;28;20017;-81
2022/09/15 08:43:24;;;;;;;;;;;;;;;15.57;77.30;101003.75;4976021;28;19929;-81
2022/09/15 08:45:56;;;;;;;;;;;;;;;15.56;77.03;101020.53;5004935;28;19944;-81
2022/09/15 08:48:25;;;;;;;;;;;;;;;15.58;77.29;101009.91;5000972;28;19913;-81
2022/09/15 08:50:53;;;;;;;;;;;;;;;15.58;77.48;101018.66;4979451;28;20214;-81
2022/09/15 08:53:38;;;;;;;;;;;;;;;15.60;77.65;101021.22;4975187;28;20220;-81
2022/09/15 08:56:10;;;;;;;;;;;;;;;15.62;77.59;101019.31;4993392;28;19925;-81
2022/09/15 08:58:36;;;;;;;;;;;;;;;15.64;77.16;101014.78;4965902;28;19914;-81
2022/09/15 09:01:12;;;;;;;;;;;;;;;15.63;77.50;101000.75;4973035;28;20020;-81
2022/09/15 09:03:47;;;;;;;;;;;;;;;15.65;76.54;100995.41;4990647;28;19980;-81
2022/09/15 09:06:28;;;;;;;;;;;;;;;15.64;74.62;101006.88;4994099;28;20103;-81
2022/09/15 09:09:09;;;;;;;;;;;;;;;15.64;74.02;101007.72;4980686;28;20227;-81
2022/09/15 09:11:53;;;;;;;;;;;;;;;15.67;74.32;101010.19;4992207;28;19988;-81
2022/09/15 09:14:37;;;;;;;;;;;;;;;15.68;74.19;101003.09;5000733;28;20193;-81
2022/09/15 09:17:21;;;;;;;;;;;;;;;15.69;73.77;101007.47;4990933;28;19917;-81
2022/09/15 09:20:21;;;;;;;;;;;;;;;15.70;74.08;101009.19;4990556;28;19921;-81
2022/09/15 09:22:50;;;;;;;;;;;;;;;15.70;74.22;101009.19;4965236;28;19921;-81
2022/09/15 09:25:17;;;;;;;;;;;;;;;15.72;74.61;101012.56;4990310;28;19921;-81
2022/09/15 09:27:42;;;;;;;;;;;;;;;15.73;74.49;101007.19;4981826;28;19925;-81
2022/09/15 09:30:11;;;;;;;;;;;;;;;15.76;74.32;101010.63;4967300;28;19986;-81
2022/09/15 09:33:12;;;;;;;;;;;;;;;15.77;74.44;101007.03;4977114;28;19918;-81
2022/09/15 09:35:44;;;;;;;;;;;;;;;15.80;74.74;101010.34;4941032;29;20276;-81
2022/09/15 09:38:18;;;;;;;;;;;;;;;15.83;74.54;101007.53;4980774;28;19918;-81
2022/09/15 09:40:44;;;;;;;;;;;;;;;15.85;74.33;101004.78;4995554;28;19985;-81
2022/09/15 09:43:09;;;;;;;;;;;;;;;15.88;74.55;101007.22;5000667;28;20116;-81
2022/09/15 09:45:35;;;;;;;;;;;;;;;15.88;74.15;101005.47;4989392;28;19917;-81
2022/09/15 09:48:02;;;;;;;;;;;;;;;15.92;73.69;101008.75;4985249;28;19921;-81
2022/09/15 09:50:32;;;;;;;;;;;;;;;15.93;73.63;101007.81;4990656;28;19921;-81
2022/09/15 09:52:58;;;;;;;;;;;;;;;15.94;72.57;100996.31;4995985;28;20004;-81
2022/09/15 09:55:25;;;;;;;;;;;;;;;15.95;72.86;100997.16;4990222;28;20201;-81
2022/09/15 09:57:51;;;;;;;;;;;;;;;15.97;72.88;101001.41;4967091;28;19956;-81
2022/09/15 10:00:30;;;;;;;;;;;;;;;15.99;71.53;101001.31;4996525;28;20002;-81
2022/09/15 10:02:56;;;;;;;;;;;;;;;16.00;71.16;101009.13;4996061;28;19972;-81
2022/09/15 10:05:21;;;;;;;;;;;;;;;16.02;71.18;100998.47;4967850;28;19980;-81
2022/09/15 10:07:47;;;;;;;;;;;;;;;16.03;70.24;101003.69;4988755;28;19941;-81
2022/09/15 10:10:23;;;;;;;;;;;;;;;16.05;70.32;101004.44;4988001;28;20094;-81
2022/09/15 10:12:49;;;;;;;;;;;;;;;16.06;69.83;101003.50;4996443;28;19929;-81
2022/09/15 10:15:25;;;;;;;;;;;;;;;16.09;68.06;100999.81;4999454;28;20176;-81
2022/09/15 10:17:51;;;;;;;;;;;;;;;16.10;69.77;100999.72;4980070;28;19922;-81
2022/09/15 10:20:31;;;;;;;;;;;;;;;16.13;69.37;100998.66;4994210;28;19996;-81
2022/09/15 10:23:15;;;;;;;;;;;;;;;16.14;67.40;100995.09;4994946;28;19936;-81
2022/09/15 10:25:40;;;;;;;;;;;;;;;16.16;66.66;100995.84;5010973;28;19959;-81
2022/09/15 10:28:20;;;;;;;;;;;;;;;16.18;66.97;100996.59;4992145;28;19929;-81
2022/09/15 10:31:06;;;;;;;;;;;;;;;16.21;64.02;100998.19;4978273;28;19914;-81
2022/09/15 10:33:36;;;;;;;;;;;;;;;16.23;64.49;101012.19;4980580;28;19986;-81
2022/09/15 10:36:21;;;;;;;;;;;;;;;16.24;65.01;100993.56;4989106;28;20248;-81
2022/09/15 10:38:47;;;;;;;;;;;;;;;16.25;65.39;101008.47;4986427;28;19929;-81
2022/09/15 10:41:22;;;;;;;;;;;;;;;16.25;62.58;101008.47;4967878;28;19925;-81
2022/09/15 10:43:50;;;;;;;;;;;;;;;16.26;61.03;101009.31;4968530;28;20159;-81
2022/09/15 10:46:26;;;;;;;;;;;;;;;16.27;64.13;101011.03;4991396;28;19964;-81
2022/09/15 10:48:59;;;;;;;;;;;;;;;16.27;63.63;101011.88;4990787;28;19924;-81
2022/09/15 10:51:31;;;;;;;;;;;;;;;16.27;62.99;101011.88;5022065;28;20113;-81
2022/09/15 10:54:07;;;;;;;;;;;;;;;16.28;63.56;101000.38;4979647;28;20114;-81
2022/09/15 10:56:35;;;;;;;;;;;;;;;16.29;63.08;101002.06;5001880;28;20089;-81
2022/09/15 10:59:20;;;;;;;;;;;;;;;16.31;63.36;101001.97;4997536;28;19917;-81
2022/09/15 11:01:51;;;;;;;;;;;;;;;16.30;62.07;101003.78;4989561;28;19945;-81
2022/09/15 11:04:22;;;;;;;;;;;;;;;16.31;61.98;101010.75;4997450;28;20097;-81
2022/09/15 11:07:17;;;;;;;;;;;;;;;16.35;62.75;101013.19;4990501;28;19918;-82
2022/09/15 11:10:09;;;;;;;;;;;;;;;16.33;60.67;101015.94;4983498;28;19932;-81
2022/09/15 11:12:47;;;;;;;;;;;;;;;16.34;62.53;101014.16;5002755;28;19985;-82
2022/09/15 11:15:36;;;;;;;;;;;;;;;16.32;60.89;101011.59;4976390;28;19918;-81
2022/09/15 11:18:01;;;;;;;;;;;;;;;16.31;62.58;101023.94;4982140;28;19918;-81
2022/09/15 11:20:42;;;;;;;;;;;;;;;16.31;63.21;101017.81;5005982;28;20009;-81
2022/09/15 11:23:23;;;;;;;;;;;;;;;16.31;62.21;101026.59;5006873;28;19980;-82
2022/09/15 11:25:51;;;;;;;;;;;;;;;16.30;62.81;101024.06;4992521;28;20116;-81
2022/09/15 11:28:29;;;;;;;;;;;;;;;16.31;64.28;101036.31;4993104;28;20113;-81
2022/09/15 11:30:57;;;;;;;;;;;;;;;16.31;64.35;101025.75;4984098;28;19948;-81
2022/09/15 11:33:26;;;;;;;;;;;;;;;16.30;63.67;101032.84;4973681;28;20148;-81
2022/09/15 11:35:58;;;;;;;;;;;;;;;16.30;65.92;101030.19;4990231;28;20248;-81
2022/09/15 11:38:36;;;;;;;;;;;;;;;16.32;66.13;101027.47;4999054;28;19909;-81
2022/09/15 11:41:19;;;;;;;;;;;;;;;16.35;67.72;101037.81;4999568;28;19945;-81
2022/09/15 11:43:51;;;;;;;;;;;;;;;16.33;67.33;101039.72;4995993;28;20215;-81
2022/09/15 11:46:20;;;;;;;;;;;;;;;16.34;66.81;101035.31;5004157;28;19913;-81
2022/09/15 11:48:58;;;;;;;;;;;;;;;16.33;65.31;101033.59;4972310;28;19940;-81
2022/09/15 11:51:25;;;;;;;;;;;;;;;16.33;66.11;101033.59;5000522;28;19917;-81
2022/09/15 11:54:03;;;;;;;;;;;;;;;16.34;65.54;101038.78;4992120;28;19920;-81
2022/09/15 11:56:30;;;;;;;;;;;;;;;16.34;64.70;101036.16;4977932;28;19936;-81
2022/09/15 11:59:00;;;;;;;;;;;;;;;16.35;65.28;101040.47;4980342;28;19914;-81
2022/09/15 12:01:28;;;;;;;;;;;;;;;16.35;65.10;101040.47;5002698;28;19921;-81
2022/09/15 12:03:57;;;;;;;;;;;;;;;16.36;64.75;101047.47;4994485;28;19917;-81
2022/09/15 12:06:23;;;;;;;;;;;;;;;16.36;65.46;101043.97;4995060;28;19922;-81
2022/09/15 12:08:51;;;;;;;;;;;;;;;16.37;65.54;101043.91;5011992;28;19924;-81
2022/09/15 12:11:19;;;;;;;;;;;;;;;16.42;69.01;101046.22;4990122;28;19918;-81
2022/09/15 12:13:44;;;;;;;;;;;;;;;16.42;67.55;101040.94;4973373;28;19917;-81
2022/09/15 12:16:10;;;;;;;;;;;;;;;16.44;67.21;101041.69;4997811;28;19933;-81
2022/09/15 12:19:02;;;;;;;;;;;;;;;16.46;68.66;101034.53;4973737;28;19914;-81
2022/09/15 12:21:36;;;;;;;;;;;;;;;16.48;68.97;101035.28;4966093;28;19929;-81
2022/09/15 12:24:02;;;;;;;;;;;;;;;16.50;68.94;101033.41;4971544;28;20177;-81
2022/09/15 12:26:27;;;;;;;;;;;;;;;16.52;68.67;101042.09;4963467;28;20010;-81
2022/09/15 12:28:54;;;;;;;;;;;;;;;16.54;68.27;101029.63;4981771;28;19929;-81
2022/09/15 12:31:38;;;;;;;;;;;;;;;16.56;67.83;101034.81;4968229;28;20116;-81
2022/09/15 12:34:04;;;;;;;;;;;;;;;16.57;67.96;101032.06;4969870;28;20216;-82
2022/09/15 12:36:43;;;;;;;;;;;;;;;16.59;66.92;101037.25;4964285;28;19976;-81
2022/09/15 12:39:24;;;;;;;;;;;;;;;16.61;67.54;101035.38;4969472;28;19984;-81
2022/09/15 12:42:04;;;;;;;;;;;;;;;16.63;68.84;101038.78;4969807;28;20100;-81
2022/09/15 12:44:29;;;;;;;;;;;;;;;16.66;68.55;101043.84;4979553;28;19917;-81
2022/09/15 12:46:56;;;;;;;;;;;;;;;16.65;67.70;101043.00;4959640;28;20197;-81